sensor_id;sensor_type;location;lat;lon;timestamp;P1;durP1;ratioP1;P2;durP2;ratioP2
16870;SDS011;8552;48.120;-1.456;2023-09-19T00:01:34;3.13;;;1.17;;
16870;SDS011;8552;48.120;-1.456;2023-09-19T00:04:00;3.00;;;0.80;;
16870;SDS011;8552;48.120;-1.456;2023-09-19T00:06:29;2.50;;;0.82;;
16870;SDS011;8552;48.120;-1.456;2023-09-19T00:08:56;2.00;;;1.20;;
16870;SDS011;8552;48.120;-1.456;2023-09-19T00:11:25;2.80;;;0.95;;
16870;SDS011;8552;48.120;-1.456;2023-09-19T00:13:51;1.45;;;0.70;;
16870;SDS011;8552;48.120;-1.456;2023-09-19T00:16:18;1.25;;;0.85;;
16870;SDS011;8552;48.120;-1.456;2023-09-19T00:18:44;2.65;;;0.88;;
16870;SDS011;8552;48.120;-1.456;2023-09-19T00:21:10;3.03;;;1.15;;
16870;SDS011;8552;48.120;-1.456;2023-09-19T00:23:36;0.88;;;0.80;;
16870;SDS011;8552;48.120;-1.456;2023-09-19T00:26:02;2.53;;;1.00;;
16870;SDS011;8552;48.120;-1.456;2023-09-19T00:28:28;2.17;;;1.20;;
16870;SDS011;8552;48.120;-1.456;2023-09-19T00:30:55;2.83;;;0.80;;
16870;SDS011;8552;48.120;-1.456;2023-09-19T00:33:21;2.67;;;0.80;;
16870;SDS011;8552;48.120;-1.456;2023-09-19T00:35:50;1.45;;;0.85;;
16870;SDS011;8552;48.120;-1.456;2023-09-19T00:38:16;3.67;;;0.90;;
16870;SDS011;8552;48.120;-1.456;2023-09-19T00:40:46;1.83;;;0.70;;
16870;SDS011;8552;48.120;-1.456;2023-09-19T00:43:12;2.35;;;0.70;;
16870;SDS011;8552;48.120;-1.456;2023-09-19T00:45:38;3.50;;;1.23;;
16870;SDS011;8552;48.120;-1.456;2023-09-19T00:48:07;2.60;;;1.00;;
16870;SDS011;8552;48.120;-1.456;2023-09-19T00:50:34;2.08;;;0.73;;
16870;SDS011;8552;48.120;-1.456;2023-09-19T00:53:01;3.78;;;1.10;;
16870;SDS011;8552;48.120;-1.456;2023-09-19T00:55:32;4.65;;;1.15;;
16870;SDS011;8552;48.120;-1.456;2023-09-19T00:58:00;2.60;;;0.88;;
16870;SDS011;8552;48.120;-1.456;2023-09-19T01:00:26;2.65;;;1.20;;
16870;SDS011;8552;48.120;-1.456;2023-09-19T01:02:53;3.70;;;1.40;;
16870;SDS011;8552;48.120;-1.456;2023-09-19T01:05:19;5.72;;;1.30;;
16870;SDS011;8552;48.120;-1.456;2023-09-19T01:07:45;6.70;;;1.48;;
16870;SDS011;8552;48.120;-1.456;2023-09-19T01:10:14;3.85;;;1.35;;
16870;SDS011;8552;48.120;-1.456;2023-09-19T01:12:47;3.45;;;0.85;;
16870;SDS011;8552;48.120;-1.456;2023-09-19T01:29:46;4.75;;;1.13;;
16870;SDS011;8552;48.120;-1.456;2023-09-19T01:32:16;2.88;;;1.38;;
16870;SDS011;8552;48.120;-1.456;2023-09-19T01:34:47;5.57;;;1.20;;
16870;SDS011;8552;48.120;-1.456;2023-09-19T01:37:17;1.63;;;0.90;;
16870;SDS011;8552;48.120;-1.456;2023-09-19T01:39:54;7.40;;;1.90;;
16870;SDS011;8552;48.120;-1.456;2023-09-19T01:43:02;6.25;;;2.45;;
16870;SDS011;8552;48.120;-1.456;2023-09-19T01:51:07;7.65;;;1.85;;
16870;SDS011;8552;48.120;-1.456;2023-09-19T01:53:55;5.78;;;1.70;;
16870;SDS011;8552;48.120;-1.456;2023-09-19T01:56:48;7.57;;;1.33;;
16870;SDS011;8552;48.120;-1.456;2023-09-19T01:59:21;7.63;;;1.55;;
16870;SDS011;8552;48.120;-1.456;2023-09-19T02:01:56;18.98;;;3.67;;
16870;SDS011;8552;48.120;-1.456;2023-09-19T02:04:23;7.15;;;2.42;;
16870;SDS011;8552;48.120;-1.456;2023-09-19T02:06:48;7.88;;;1.38;;
16870;SDS011;8552;48.120;-1.456;2023-09-19T02:09:14;5.97;;;1.58;;
16870;SDS011;8552;48.120;-1.456;2023-09-19T02:11:40;4.90;;;1.40;;
16870;SDS011;8552;48.120;-1.456;2023-09-19T02:14:07;8.23;;;1.65;;
16870;SDS011;8552;48.120;-1.456;2023-09-19T02:16:33;6.20;;;1.83;;
16870;SDS011;8552;48.120;-1.456;2023-09-19T02:18:59;6.28;;;1.77;;
16870;SDS011;8552;48.120;-1.456;2023-09-19T02:21:25;4.78;;;1.65;;
16870;SDS011;8552;48.120;-1.456;2023-09-19T02:23:55;5.10;;;1.77;;
16870;SDS011;8552;48.120;-1.456;2023-09-19T02:26:21;7.32;;;2.05;;
16870;SDS011;8552;48.120;-1.456;2023-09-19T02:28:49;2.83;;;1.65;;
16870;SDS011;8552;48.120;-1.456;2023-09-19T02:31:15;7.30;;;1.45;;
16870;SDS011;8552;48.120;-1.456;2023-09-19T02:33:41;4.55;;;1.60;;
16870;SDS011;8552;48.120;-1.456;2023-09-19T02:36:08;7.63;;;1.60;;
16870;SDS011;8552;48.120;-1.456;2023-09-19T02:38:34;4.03;;;1.98;;
16870;SDS011;8552;48.120;-1.456;2023-09-19T02:41:00;5.93;;;1.25;;
16870;SDS011;8552;48.120;-1.456;2023-09-19T02:43:26;6.93;;;2.08;;
16870;SDS011;8552;48.120;-1.456;2023-09-19T02:45:52;6.28;;;1.50;;
16870;SDS011;8552;48.120;-1.456;2023-09-19T02:48:22;6.95;;;1.55;;
16870;SDS011;8552;48.120;-1.456;2023-09-19T02:50:51;5.80;;;1.90;;
16870;SDS011;8552;48.120;-1.456;2023-09-19T02:53:17;7.30;;;1.88;;
16870;SDS011;8552;48.120;-1.456;2023-09-19T02:55:44;6.72;;;2.03;;
16870;SDS011;8552;48.120;-1.456;2023-09-19T02:58:09;3.38;;;1.70;;
16870;SDS011;8552;48.120;-1.456;2023-09-19T03:00:39;5.47;;;1.60;;
16870;SDS011;8552;48.120;-1.456;2023-09-19T03:03:07;8.07;;;1.75;;
16870;SDS011;8552;48.120;-1.456;2023-09-19T03:05:33;5.57;;;1.52;;
16870;SDS011;8552;48.120;-1.456;2023-09-19T03:07:59;6.88;;;2.03;;
16870;SDS011;8552;48.120;-1.456;2023-09-19T03:10:26;6.80;;;2.03;;
16870;SDS011;8552;48.120;-1.456;2023-09-19T03:12:53;5.38;;;1.35;;
16870;SDS011;8552;48.120;-1.456;2023-09-19T03:15:19;5.65;;;1.50;;
16870;SDS011;8552;48.120;-1.456;2023-09-19T03:17:45;4.90;;;1.60;;
16870;SDS011;8552;48.120;-1.456;2023-09-19T03:20:12;4.70;;;1.73;;
16870;SDS011;8552;48.120;-1.456;2023-09-19T03:22:39;5.47;;;1.73;;
16870;SDS011;8552;48.120;-1.456;2023-09-19T03:25:05;9.73;;;2.13;;
16870;SDS011;8552;48.120;-1.456;2023-09-19T03:27:33;3.70;;;1.90;;
16870;SDS011;8552;48.120;-1.456;2023-09-19T03:30:02;3.03;;;1.40;;
16870;SDS011;8552;48.120;-1.456;2023-09-19T03:32:36;5.55;;;1.88;;
16870;SDS011;8552;48.120;-1.456;2023-09-19T03:35:03;5.25;;;1.55;;
16870;SDS011;8552;48.120;-1.456;2023-09-19T03:37:32;6.03;;;1.35;;
16870;SDS011;8552;48.120;-1.456;2023-09-19T03:40:00;7.82;;;1.55;;
16870;SDS011;8552;48.120;-1.456;2023-09-19T03:42:30;12.48;;;2.20;;
16870;SDS011;8552;48.120;-1.456;2023-09-19T03:44:56;4.47;;;1.50;;
16870;SDS011;8552;48.120;-1.456;2023-09-19T03:47:22;4.65;;;1.40;;
16870;SDS011;8552;48.120;-1.456;2023-09-19T03:49:48;4.05;;;1.50;;
16870;SDS011;8552;48.120;-1.456;2023-09-19T03:52:13;9.43;;;1.80;;
16870;SDS011;8552;48.120;-1.456;2023-09-19T03:54:41;6.90;;;2.65;;
16870;SDS011;8552;48.120;-1.456;2023-09-19T03:57:07;14.45;;;2.58;;
16870;SDS011;8552;48.120;-1.456;2023-09-19T03:59:33;8.38;;;1.77;;
16870;SDS011;8552;48.120;-1.456;2023-09-19T04:02:00;3.70;;;1.55;;
16870;SDS011;8552;48.120;-1.456;2023-09-19T04:04:27;8.23;;;2.08;;
16870;SDS011;8552;48.120;-1.456;2023-09-19T04:06:54;7.38;;;2.10;;
16870;SDS011;8552;48.120;-1.456;2023-09-19T04:09:20;7.95;;;1.70;;
16870;SDS011;8552;48.120;-1.456;2023-09-19T04:11:45;6.03;;;1.98;;
16870;SDS011;8552;48.120;-1.456;2023-09-19T04:14:11;4.82;;;1.83;;
16870;SDS011;8552;48.120;-1.456;2023-09-19T04:16:37;9.63;;;2.08;;
16870;SDS011;8552;48.120;-1.456;2023-09-19T04:19:04;15.13;;;3.00;;
16870;SDS011;8552;48.120;-1.456;2023-09-19T04:21:30;7.78;;;1.80;;
16870;SDS011;8552;48.120;-1.456;2023-09-19T04:23:56;5.18;;;1.77;;
16870;SDS011;8552;48.120;-1.456;2023-09-19T04:26:21;12.82;;;2.75;;
16870;SDS011;8552;48.120;-1.456;2023-09-19T04:28:47;9.30;;;2.03;;
16870;SDS011;8552;48.120;-1.456;2023-09-19T04:31:13;8.82;;;2.10;;
16870;SDS011;8552;48.120;-1.456;2023-09-19T04:33:39;5.43;;;2.17;;
16870;SDS011;8552;48.120;-1.456;2023-09-19T04:36:05;6.00;;;1.67;;
16870;SDS011;8552;48.120;-1.456;2023-09-19T04:38:32;6.97;;;1.92;;
16870;SDS011;8552;48.120;-1.456;2023-09-19T04:40:58;6.65;;;1.88;;
16870;SDS011;8552;48.120;-1.456;2023-09-19T04:43:24;6.43;;;1.90;;
16870;SDS011;8552;48.120;-1.456;2023-09-19T04:45:50;6.63;;;2.28;;
16870;SDS011;8552;48.120;-1.456;2023-09-19T04:48:20;7.07;;;1.85;;
16870;SDS011;8552;48.120;-1.456;2023-09-19T04:50:51;4.47;;;1.95;;
16870;SDS011;8552;48.120;-1.456;2023-09-19T04:53:18;3.22;;;1.60;;
16870;SDS011;8552;48.120;-1.456;2023-09-19T04:55:49;8.48;;;1.70;;
16870;SDS011;8552;48.120;-1.456;2023-09-19T04:58:16;5.15;;;1.73;;
16870;SDS011;8552;48.120;-1.456;2023-09-19T05:00:42;11.38;;;1.75;;
16870;SDS011;8552;48.120;-1.456;2023-09-19T05:03:08;8.13;;;2.33;;
16870;SDS011;8552;48.120;-1.456;2023-09-19T05:05:34;12.40;;;2.70;;
16870;SDS011;8552;48.120;-1.456;2023-09-19T05:08:00;7.22;;;2.33;;
16870;SDS011;8552;48.120;-1.456;2023-09-19T05:10:25;9.43;;;2.10;;
16870;SDS011;8552;48.120;-1.456;2023-09-19T05:12:54;5.82;;;1.40;;
16870;SDS011;8552;48.120;-1.456;2023-09-19T05:15:22;6.97;;;1.90;;
16870;SDS011;8552;48.120;-1.456;2023-09-19T05:17:51;12.52;;;2.10;;
16870;SDS011;8552;48.120;-1.456;2023-09-19T05:20:20;7.13;;;1.52;;
16870;SDS011;8552;48.120;-1.456;2023-09-19T05:22:59;6.22;;;1.48;;
16870;SDS011;8552;48.120;-1.456;2023-09-19T05:25:33;7.63;;;2.00;;
16870;SDS011;8552;48.120;-1.456;2023-09-19T05:28:07;7.50;;;2.20;;
16870;SDS011;8552;48.120;-1.456;2023-09-19T05:30:34;5.65;;;1.77;;
16870;SDS011;8552;48.120;-1.456;2023-09-19T05:33:08;6.30;;;2.35;;
16870;SDS011;8552;48.120;-1.456;2023-09-19T05:35:34;3.80;;;1.63;;
16870;SDS011;8552;48.120;-1.456;2023-09-19T05:38:04;11.10;;;2.28;;
16870;SDS011;8552;48.120;-1.456;2023-09-19T05:40:33;7.55;;;2.03;;
16870;SDS011;8552;48.120;-1.456;2023-09-19T05:43:00;11.02;;;2.28;;
16870;SDS011;8552;48.120;-1.456;2023-09-19T05:45:27;10.00;;;3.05;;
16870;SDS011;8552;48.120;-1.456;2023-09-19T05:47:53;7.90;;;3.20;;
16870;SDS011;8552;48.120;-1.456;2023-09-19T05:50:29;6.88;;;2.13;;
16870;SDS011;8552;48.120;-1.456;2023-09-19T05:52:55;7.82;;;2.10;;
16870;SDS011;8552;48.120;-1.456;2023-09-19T05:55:23;4.85;;;1.75;;
16870;SDS011;8552;48.120;-1.456;2023-09-19T05:57:50;8.18;;;1.80;;
16870;SDS011;8552;48.120;-1.456;2023-09-19T06:00:19;14.30;;;2.33;;
16870;SDS011;8552;48.120;-1.456;2023-09-19T06:02:51;10.38;;;3.22;;
16870;SDS011;8552;48.120;-1.456;2023-09-19T06:05:20;7.50;;;1.70;;
16870;SDS011;8552;48.120;-1.456;2023-09-19T06:07:46;8.38;;;2.05;;
16870;SDS011;8552;48.120;-1.456;2023-09-19T06:10:12;6.70;;;2.28;;
16870;SDS011;8552;48.120;-1.456;2023-09-19T06:12:40;7.50;;;3.58;;
16870;SDS011;8552;48.120;-1.456;2023-09-19T06:15:08;10.45;;;2.10;;
16870;SDS011;8552;48.120;-1.456;2023-09-19T06:17:40;8.93;;;2.45;;
16870;SDS011;8552;48.120;-1.456;2023-09-19T06:20:11;9.68;;;2.35;;
16870;SDS011;8552;48.120;-1.456;2023-09-19T06:22:41;6.60;;;2.00;;
16870;SDS011;8552;48.120;-1.456;2023-09-19T06:25:07;8.52;;;2.55;;
16870;SDS011;8552;48.120;-1.456;2023-09-19T06:27:36;5.65;;;2.42;;
16870;SDS011;8552;48.120;-1.456;2023-09-19T06:30:09;6.95;;;2.15;;
16870;SDS011;8552;48.120;-1.456;2023-09-19T06:32:39;10.07;;;2.20;;
16870;SDS011;8552;48.120;-1.456;2023-09-19T06:35:09;4.25;;;2.20;;
16870;SDS011;8552;48.120;-1.456;2023-09-19T06:37:39;9.15;;;2.35;;
16870;SDS011;8552;48.120;-1.456;2023-09-19T06:40:13;6.57;;;2.58;;
16870;SDS011;8552;48.120;-1.456;2023-09-19T06:42:51;7.28;;;2.00;;
16870;SDS011;8552;48.120;-1.456;2023-09-19T06:45:19;13.65;;;2.80;;
16870;SDS011;8552;48.120;-1.456;2023-09-19T06:47:47;7.72;;;2.10;;
16870;SDS011;8552;48.120;-1.456;2023-09-19T06:50:17;6.45;;;2.30;;
16870;SDS011;8552;48.120;-1.456;2023-09-19T06:52:45;14.25;;;3.25;;
16870;SDS011;8552;48.120;-1.456;2023-09-19T06:55:15;9.27;;;2.22;;
16870;SDS011;8552;48.120;-1.456;2023-09-19T06:57:42;11.68;;;2.30;;
16870;SDS011;8552;48.120;-1.456;2023-09-19T07:00:11;7.55;;;1.83;;
16870;SDS011;8552;48.120;-1.456;2023-09-19T07:02:59;9.02;;;2.13;;
16870;SDS011;8552;48.120;-1.456;2023-09-19T07:05:28;13.48;;;2.63;;
16870;SDS011;8552;48.120;-1.456;2023-09-19T07:07:56;7.95;;;2.15;;
16870;SDS011;8552;48.120;-1.456;2023-09-19T07:10:26;6.95;;;2.08;;
16870;SDS011;8552;48.120;-1.456;2023-09-19T07:12:57;6.57;;;2.05;;
16870;SDS011;8552;48.120;-1.456;2023-09-19T07:15:24;11.13;;;3.22;;
16870;SDS011;8552;48.120;-1.456;2023-09-19T07:17:51;10.63;;;2.70;;
16870;SDS011;8552;48.120;-1.456;2023-09-19T07:20:21;8.73;;;2.47;;
16870;SDS011;8552;48.120;-1.456;2023-09-19T07:22:48;20.73;;;3.33;;
16870;SDS011;8552;48.120;-1.456;2023-09-19T07:25:15;10.98;;;2.20;;
16870;SDS011;8552;48.120;-1.456;2023-09-19T07:27:42;9.65;;;2.85;;
16870;SDS011;8552;48.120;-1.456;2023-09-19T07:30:08;8.57;;;2.53;;
16870;SDS011;8552;48.120;-1.456;2023-09-19T07:32:35;9.80;;;2.60;;
16870;SDS011;8552;48.120;-1.456;2023-09-19T07:35:03;12.63;;;2.60;;
16870;SDS011;8552;48.120;-1.456;2023-09-19T07:37:32;8.55;;;2.63;;
16870;SDS011;8552;48.120;-1.456;2023-09-19T07:39:59;13.98;;;3.53;;
16870;SDS011;8552;48.120;-1.456;2023-09-19T07:42:51;10.70;;;2.00;;
16870;SDS011;8552;48.120;-1.456;2023-09-19T07:45:17;7.90;;;2.20;;
16870;SDS011;8552;48.120;-1.456;2023-09-19T07:50:12;12.68;;;3.05;;
16870;SDS011;8552;48.120;-1.456;2023-09-19T07:52:43;4.15;;;2.13;;
16870;SDS011;8552;48.120;-1.456;2023-09-19T07:55:09;9.82;;;2.88;;
16870;SDS011;8552;48.120;-1.456;2023-09-19T07:57:41;9.00;;;1.95;;
16870;SDS011;8552;48.120;-1.456;2023-09-19T08:00:09;6.80;;;2.75;;
16870;SDS011;8552;48.120;-1.456;2023-09-19T08:02:35;8.77;;;2.15;;
16870;SDS011;8552;48.120;-1.456;2023-09-19T08:05:05;6.07;;;1.95;;
16870;SDS011;8552;48.120;-1.456;2023-09-19T08:07:35;9.82;;;2.45;;
16870;SDS011;8552;48.120;-1.456;2023-09-19T08:10:01;13.07;;;2.45;;
16870;SDS011;8552;48.120;-1.456;2023-09-19T08:12:28;7.90;;;2.53;;
16870;SDS011;8552;48.120;-1.456;2023-09-19T08:14:55;7.72;;;2.63;;
16870;SDS011;8552;48.120;-1.456;2023-09-19T08:17:21;9.27;;;2.33;;
16870;SDS011;8552;48.120;-1.456;2023-09-19T08:19:48;9.07;;;2.63;;
16870;SDS011;8552;48.120;-1.456;2023-09-19T08:22:17;8.27;;;2.13;;
16870;SDS011;8552;48.120;-1.456;2023-09-19T08:24:44;6.32;;;1.83;;
16870;SDS011;8552;48.120;-1.456;2023-09-19T08:27:11;9.30;;;2.08;;
16870;SDS011;8552;48.120;-1.456;2023-09-19T08:29:37;9.40;;;2.15;;
16870;SDS011;8552;48.120;-1.456;2023-09-19T08:32:03;3.92;;;1.35;;
16870;SDS011;8552;48.120;-1.456;2023-09-19T08:34:29;7.53;;;2.40;;
16870;SDS011;8552;48.120;-1.456;2023-09-19T08:36:59;8.38;;;2.15;;
16870;SDS011;8552;48.120;-1.456;2023-09-19T08:39:24;7.40;;;1.65;;
16870;SDS011;8552;48.120;-1.456;2023-09-19T08:41:57;8.50;;;2.58;;
16870;SDS011;8552;48.120;-1.456;2023-09-19T08:44:27;5.88;;;1.60;;
16870;SDS011;8552;48.120;-1.456;2023-09-19T08:47:15;4.75;;;1.95;;
16870;SDS011;8552;48.120;-1.456;2023-09-19T08:49:59;9.00;;;2.13;;
16870;SDS011;8552;48.120;-1.456;2023-09-19T08:52:43;10.13;;;1.83;;
16870;SDS011;8552;48.120;-1.456;2023-09-19T08:55:12;5.63;;;1.92;;
16870;SDS011;8552;48.120;-1.456;2023-09-19T08:57:45;8.18;;;1.95;;
16870;SDS011;8552;48.120;-1.456;2023-09-19T09:00:14;6.72;;;1.92;;
16870;SDS011;8552;48.120;-1.456;2023-09-19T09:02:43;8.95;;;2.42;;
16870;SDS011;8552;48.120;-1.456;2023-09-19T09:05:10;7.68;;;2.15;;
16870;SDS011;8552;48.120;-1.456;2023-09-19T09:07:36;6.22;;;1.73;;
16870;SDS011;8552;48.120;-1.456;2023-09-19T09:10:02;9.68;;;2.33;;
16870;SDS011;8552;48.120;-1.456;2023-09-19T09:12:29;8.98;;;2.10;;
16870;SDS011;8552;48.120;-1.456;2023-09-19T09:14:55;9.38;;;1.77;;
16870;SDS011;8552;48.120;-1.456;2023-09-19T09:17:22;14.85;;;2.50;;
16870;SDS011;8552;48.120;-1.456;2023-09-19T09:19:49;8.73;;;2.28;;
16870;SDS011;8552;48.120;-1.456;2023-09-19T09:22:18;4.72;;;1.88;;
16870;SDS011;8552;48.120;-1.456;2023-09-19T09:27:28;13.38;;;2.42;;
16870;SDS011;8552;48.120;-1.456;2023-09-19T09:29:54;7.68;;;2.08;;
16870;SDS011;8552;48.120;-1.456;2023-09-19T09:34:52;7.57;;;2.22;;
16870;SDS011;8552;48.120;-1.456;2023-09-19T09:37:20;6.72;;;2.00;;
16870;SDS011;8552;48.120;-1.456;2023-09-19T09:42:34;10.30;;;2.58;;
16870;SDS011;8552;48.120;-1.456;2023-09-19T09:45:14;7.88;;;2.30;;
16870;SDS011;8552;48.120;-1.456;2023-09-19T09:48:02;9.02;;;2.55;;
16870;SDS011;8552;48.120;-1.456;2023-09-19T09:50:33;9.10;;;2.78;;
16870;SDS011;8552;48.120;-1.456;2023-09-19T09:53:21;7.13;;;1.67;;
16870;SDS011;8552;48.120;-1.456;2023-09-19T09:56:04;6.45;;;1.65;;
16870;SDS011;8552;48.120;-1.456;2023-09-19T09:58:32;5.68;;;1.67;;
16870;SDS011;8552;48.120;-1.456;2023-09-19T10:01:00;6.43;;;1.70;;
16870;SDS011;8552;48.120;-1.456;2023-09-19T10:03:36;5.05;;;1.90;;
16870;SDS011;8552;48.120;-1.456;2023-09-19T10:06:08;7.57;;;1.63;;
16870;SDS011;8552;48.120;-1.456;2023-09-19T10:09:07;9.15;;;2.20;;
16870;SDS011;8552;48.120;-1.456;2023-09-19T10:11:43;8.10;;;2.63;;
16870;SDS011;8552;48.120;-1.456;2023-09-19T10:14:15;10.13;;;2.25;;
16870;SDS011;8552;48.120;-1.456;2023-09-19T10:16:49;6.32;;;2.40;;
16870;SDS011;8552;48.120;-1.456;2023-09-19T10:19:29;7.72;;;2.38;;
16870;SDS011;8552;48.120;-1.456;2023-09-19T10:22:03;3.88;;;1.88;;
16870;SDS011;8552;48.120;-1.456;2023-09-19T10:24:35;10.90;;;1.92;;
16870;SDS011;8552;48.120;-1.456;2023-09-19T10:27:03;8.50;;;1.90;;
16870;SDS011;8552;48.120;-1.456;2023-09-19T10:29:33;10.73;;;2.72;;
16870;SDS011;8552;48.120;-1.456;2023-09-19T10:32:01;8.60;;;1.83;;
16870;SDS011;8552;48.120;-1.456;2023-09-19T10:34:31;6.53;;;1.80;;
16870;SDS011;8552;48.120;-1.456;2023-09-19T10:37:00;12.43;;;2.35;;
16870;SDS011;8552;48.120;-1.456;2023-09-19T10:39:30;4.95;;;2.15;;
16870;SDS011;8552;48.120;-1.456;2023-09-19T10:41:57;6.05;;;2.00;;
16870;SDS011;8552;48.120;-1.456;2023-09-19T10:44:31;5.75;;;1.77;;
16870;SDS011;8552;48.120;-1.456;2023-09-19T10:46:58;12.48;;;1.80;;
16870;SDS011;8552;48.120;-1.456;2023-09-19T10:49:24;7.13;;;2.35;;
16870;SDS011;8552;48.120;-1.456;2023-09-19T10:51:54;10.10;;;2.50;;
16870;SDS011;8552;48.120;-1.456;2023-09-19T10:54:26;6.32;;;1.70;;
16870;SDS011;8552;48.120;-1.456;2023-09-19T10:56:57;5.32;;;1.98;;
16870;SDS011;8552;48.120;-1.456;2023-09-19T10:59:24;5.60;;;1.65;;
16870;SDS011;8552;48.120;-1.456;2023-09-19T11:01:51;5.82;;;1.75;;
16870;SDS011;8552;48.120;-1.456;2023-09-19T11:07:01;6.95;;;2.00;;
16870;SDS011;8552;48.120;-1.456;2023-09-19T11:09:52;6.88;;;2.58;;
16870;SDS011;8552;48.120;-1.456;2023-09-19T11:15:01;8.35;;;2.38;;
16870;SDS011;8552;48.120;-1.456;2023-09-19T11:17:36;5.78;;;1.77;;
16870;SDS011;8552;48.120;-1.456;2023-09-19T11:30:44;7.07;;;2.05;;
16870;SDS011;8552;48.120;-1.456;2023-09-19T11:47:11;6.43;;;1.90;;
16870;SDS011;8552;48.120;-1.456;2023-09-19T11:49:31;6.28;;;2.28;;
16870;SDS011;8552;48.120;-1.456;2023-09-19T11:51:59;7.03;;;2.03;;
16870;SDS011;8552;48.120;-1.456;2023-09-19T11:54:26;7.38;;;2.63;;
16870;SDS011;8552;48.120;-1.456;2023-09-19T11:56:57;6.57;;;1.90;;
16870;SDS011;8552;48.120;-1.456;2023-09-19T11:59:24;7.57;;;1.90;;
16870;SDS011;8552;48.120;-1.456;2023-09-19T12:04:35;5.10;;;1.88;;
16870;SDS011;8552;48.120;-1.456;2023-09-19T12:09:40;6.68;;;1.90;;
16870;SDS011;8552;48.120;-1.456;2023-09-19T12:14:49;6.40;;;1.92;;
16870;SDS011;8552;48.120;-1.456;2023-09-19T12:17:15;4.60;;;1.85;;
16870;SDS011;8552;48.120;-1.456;2023-09-19T12:19:50;5.18;;;1.67;;
16870;SDS011;8552;48.120;-1.456;2023-09-19T12:22:19;4.90;;;2.30;;
16870;SDS011;8552;48.120;-1.456;2023-09-19T12:24:47;5.43;;;1.77;;
16870;SDS011;8552;48.120;-1.456;2023-09-19T12:27:15;5.18;;;2.00;;
16870;SDS011;8552;48.120;-1.456;2023-09-19T12:29:48;5.28;;;1.70;;
16870;SDS011;8552;48.120;-1.456;2023-09-19T12:32:15;6.07;;;1.70;;
16870;SDS011;8552;48.120;-1.456;2023-09-19T12:34:52;6.85;;;1.98;;
16870;SDS011;8552;48.120;-1.456;2023-09-19T12:37:19;5.63;;;1.80;;
16870;SDS011;8552;48.120;-1.456;2023-09-19T12:39:49;4.20;;;2.30;;
16870;SDS011;8552;48.120;-1.456;2023-09-19T12:42:21;6.00;;;2.30;;
16870;SDS011;8552;48.120;-1.456;2023-09-19T12:44:49;5.57;;;1.98;;
16870;SDS011;8552;48.120;-1.456;2023-09-19T12:47:20;8.27;;;2.28;;
16870;SDS011;8552;48.120;-1.456;2023-09-19T12:52:46;5.82;;;2.05;;
16870;SDS011;8552;48.120;-1.456;2023-09-19T12:55:26;6.38;;;1.95;;
16870;SDS011;8552;48.120;-1.456;2023-09-19T13:11:10;6.03;;;2.05;;
16870;SDS011;8552;48.120;-1.456;2023-09-19T13:16:29;7.68;;;2.50;;
16870;SDS011;8552;48.120;-1.456;2023-09-19T13:18:54;5.60;;;1.92;;
16870;SDS011;8552;48.120;-1.456;2023-09-19T13:21:32;5.68;;;2.10;;
16870;SDS011;8552;48.120;-1.456;2023-09-19T13:24:17;5.75;;;2.38;;
16870;SDS011;8552;48.120;-1.456;2023-09-19T13:26:48;5.40;;;2.22;;
16870;SDS011;8552;48.120;-1.456;2023-09-19T13:29:14;6.05;;;2.28;;
16870;SDS011;8552;48.120;-1.456;2023-09-19T13:31:45;7.75;;;2.22;;
16870;SDS011;8552;48.120;-1.456;2023-09-19T13:34:11;9.70;;;2.63;;
16870;SDS011;8552;48.120;-1.456;2023-09-19T13:36:39;4.93;;;2.17;;
16870;SDS011;8552;48.120;-1.456;2023-09-19T13:39:04;6.70;;;1.80;;
16870;SDS011;8552;48.120;-1.456;2023-09-19T13:41:32;8.68;;;2.17;;
16870;SDS011;8552;48.120;-1.456;2023-09-19T13:43:57;7.43;;;3.38;;
16870;SDS011;8552;48.120;-1.456;2023-09-19T13:46:23;2.70;;;1.92;;
16870;SDS011;8552;48.120;-1.456;2023-09-19T13:48:51;4.30;;;2.25;;
16870;SDS011;8552;48.120;-1.456;2023-09-19T13:51:20;6.38;;;2.45;;
16870;SDS011;8552;48.120;-1.456;2023-09-19T13:53:48;6.90;;;2.70;;
16870;SDS011;8552;48.120;-1.456;2023-09-19T13:56:15;5.55;;;2.17;;
16870;SDS011;8552;48.120;-1.456;2023-09-19T13:58:41;9.65;;;3.05;;
16870;SDS011;8552;48.120;-1.456;2023-09-19T14:01:07;6.03;;;2.60;;
16870;SDS011;8552;48.120;-1.456;2023-09-19T14:03:41;5.60;;;2.20;;
16870;SDS011;8552;48.120;-1.456;2023-09-19T14:06:12;5.32;;;2.53;;
16870;SDS011;8552;48.120;-1.456;2023-09-19T14:08:38;8.07;;;2.83;;
16870;SDS011;8552;48.120;-1.456;2023-09-19T14:11:10;5.30;;;2.55;;
16870;SDS011;8552;48.120;-1.456;2023-09-19T14:13:35;7.90;;;3.00;;
16870;SDS011;8552;48.120;-1.456;2023-09-19T14:16:04;4.68;;;2.58;;
16870;SDS011;8552;48.120;-1.456;2023-09-19T14:18:31;6.93;;;3.20;;
16870;SDS011;8552;48.120;-1.456;2023-09-19T14:20:57;6.60;;;2.67;;
16870;SDS011;8552;48.120;-1.456;2023-09-19T14:23:22;5.53;;;3.05;;
16870;SDS011;8552;48.120;-1.456;2023-09-19T14:25:48;4.07;;;2.28;;
16870;SDS011;8552;48.120;-1.456;2023-09-19T14:28:15;6.65;;;2.97;;
16870;SDS011;8552;48.120;-1.456;2023-09-19T14:30:41;5.45;;;2.83;;
16870;SDS011;8552;48.120;-1.456;2023-09-19T14:33:07;7.15;;;2.53;;
16870;SDS011;8552;48.120;-1.456;2023-09-19T14:35:32;8.38;;;2.80;;
16870;SDS011;8552;48.120;-1.456;2023-09-19T14:37:58;5.47;;;2.55;;
16870;SDS011;8552;48.120;-1.456;2023-09-19T14:40:24;5.57;;;2.47;;
16870;SDS011;8552;48.120;-1.456;2023-09-19T14:42:50;7.25;;;2.97;;
16870;SDS011;8552;48.120;-1.456;2023-09-19T14:45:16;10.32;;;3.33;;
16870;SDS011;8552;48.120;-1.456;2023-09-19T14:47:43;4.13;;;2.45;;
16870;SDS011;8552;48.120;-1.456;2023-09-19T14:50:10;7.78;;;2.95;;
16870;SDS011;8552;48.120;-1.456;2023-09-19T14:52:37;7.32;;;3.05;;
16870;SDS011;8552;48.120;-1.456;2023-09-19T14:55:05;7.70;;;3.10;;
16870;SDS011;8552;48.120;-1.456;2023-09-19T14:57:31;7.30;;;2.95;;
16870;SDS011;8552;48.120;-1.456;2023-09-19T14:59:57;6.32;;;2.83;;
16870;SDS011;8552;48.120;-1.456;2023-09-19T15:02:23;7.72;;;3.25;;
16870;SDS011;8552;48.120;-1.456;2023-09-19T15:04:49;4.95;;;2.75;;
16870;SDS011;8552;48.120;-1.456;2023-09-19T15:07:16;5.10;;;2.83;;
16870;SDS011;8552;48.120;-1.456;2023-09-19T15:09:42;7.18;;;3.15;;
16870;SDS011;8552;48.120;-1.456;2023-09-19T15:12:08;5.40;;;3.28;;
16870;SDS011;8552;48.120;-1.456;2023-09-19T15:14:36;10.70;;;2.90;;
16870;SDS011;8552;48.120;-1.456;2023-09-19T15:17:02;7.45;;;3.30;;
16870;SDS011;8552;48.120;-1.456;2023-09-19T15:19:29;8.05;;;2.60;;
16870;SDS011;8552;48.120;-1.456;2023-09-19T15:21:55;8.60;;;2.70;;
16870;SDS011;8552;48.120;-1.456;2023-09-19T15:24:22;7.22;;;2.92;;
16870;SDS011;8552;48.120;-1.456;2023-09-19T15:26:48;5.35;;;2.53;;
16870;SDS011;8552;48.120;-1.456;2023-09-19T15:29:15;7.78;;;2.92;;
16870;SDS011;8552;48.120;-1.456;2023-09-19T15:31:41;7.22;;;2.97;;
16870;SDS011;8552;48.120;-1.456;2023-09-19T15:34:06;4.70;;;2.20;;
16870;SDS011;8552;48.120;-1.456;2023-09-19T15:36:32;6.50;;;2.75;;
16870;SDS011;8552;48.120;-1.456;2023-09-19T15:44:02;6.85;;;2.70;;
16870;SDS011;8552;48.120;-1.456;2023-09-19T15:46:32;6.35;;;2.42;;
16870;SDS011;8552;48.120;-1.456;2023-09-19T15:49:00;5.95;;;3.00;;
16870;SDS011;8552;48.120;-1.456;2023-09-19T15:51:26;4.40;;;2.30;;
16870;SDS011;8552;48.120;-1.456;2023-09-19T15:53:52;6.43;;;2.80;;
16870;SDS011;8552;48.120;-1.456;2023-09-19T15:56:19;7.00;;;2.72;;
16870;SDS011;8552;48.120;-1.456;2023-09-19T15:58:46;6.82;;;2.50;;
16870;SDS011;8552;48.120;-1.456;2023-09-19T16:01:13;7.97;;;2.58;;
16870;SDS011;8552;48.120;-1.456;2023-09-19T16:03:42;9.27;;;2.75;;
16870;SDS011;8552;48.120;-1.456;2023-09-19T16:06:09;8.00;;;2.65;;
16870;SDS011;8552;48.120;-1.456;2023-09-19T16:08:43;6.35;;;2.55;;
16870;SDS011;8552;48.120;-1.456;2023-09-19T16:11:10;6.85;;;2.92;;
16870;SDS011;8552;48.120;-1.456;2023-09-19T16:13:36;6.93;;;2.80;;
16870;SDS011;8552;48.120;-1.456;2023-09-19T16:16:03;8.85;;;3.10;;
16870;SDS011;8552;48.120;-1.456;2023-09-19T16:18:29;8.73;;;2.90;;
16870;SDS011;8552;48.120;-1.456;2023-09-19T16:21:01;8.30;;;3.33;;
16870;SDS011;8552;48.120;-1.456;2023-09-19T16:23:28;7.15;;;2.33;;
16870;SDS011;8552;48.120;-1.456;2023-09-19T16:26:00;7.18;;;2.58;;
16870;SDS011;8552;48.120;-1.456;2023-09-19T16:28:26;6.90;;;2.53;;